Norwegian Jewel — C6TX6 — position and weather

sailwx.info

Track history (hours):
 
Tides and Currents Weather Stations Pressure Air Temp Water Temp Dewpoint Dewpoint Depression Visibility Wind Speed Wind Dir Waves Ship Positions

Norwegian Jewel

Last reported at 2017-Nov-21 11:00 UTC. Time now 2017-Nov-22 07:26 UTC.
Position S 40°30' E 160°00'.

Type: Ship. MMSI: 311827000.

Wind from 180 at 26 knots

Barometer 1025.0 mb
Air temperature 14.0 ° C
Visibility: greater than 10.8 NM
Dewpoint 13.2 ° C
Water temperature 17.0 ° C

Date/timePositionNaut miles runAvg speedWind from/ knotsBaromVisibWave heightAir tempDewpointWater temp
2017-Nov-21 11:00S 40°30' E 160°00'26922.4 180 / 261025.010.8 14.013.217.0
2017-Nov-20 23:00S 40°36' E 154°06'45311.3 140 / 151027.010.8 15.814.818.0
2017-Nov-19 06:59S 38°01' E 144°55'815.9
2017-Nov-19 06:29S 37°53' E 144°56'3 0.9
2017-Nov-19 03:33S 37°51' E 144°56'0 0.0
2017-Nov-19 03:30S 37°51' E 144°56'0 0.0
2017-Nov-18 19:50S 37°51' E 144°56'3 9.1
2017-Nov-18 19:29S 37°54' E 144°56'814.9
2017-Nov-18 18:59S 38°02' E 144°55'13910.8
2017-Nov-18 06:07S 38°49' E 147°42'316.1
2017-Nov-18 05:56S 38°49' E 147°45'816.2
2017-Nov-18 05:26S 38°47' E 147°55'1016.1
2017-Nov-18 04:48S 38°44' E 148°08'516.4
2017-Nov-18 04:30S 38°43' E 148°14'1016.5
2017-Nov-18 03:55S 38°38' E 148°25'717.2
2017-Nov-18 03:30S 38°34' E 148°33'916.9
2017-Nov-18 03:00S 38°29' E 148°42'817.0
2017-Nov-18 02:30S 38°25' E 148°51'917.3
2017-Nov-18 01:59S 38°20' E 148°60'917.2
2017-Nov-18 01:29S 38°15' E 149°09'285 8.8
2017-Nov-16 17:16S 33°50' E 151°19'510.9
2017-Nov-16 16:51S 33°54' E 151°22'31718.2
2017-Nov-15 23:26S 38°58' E 149°28'26918.1
2017-Nov-15 08:35S 43°13' E 147°35'1915.6
2017-Nov-15 07:20S 42°56' E 147°23'3 8.5
2017-Nov-15 06:57S 42°53' E 147°21'0 0.2
2017-Nov-15 06:30S 42°53' E 147°20'0 0.0
2017-Nov-15 05:56S 42°53' E 147°20'0 0.0
2017-Nov-15 05:25S 42°53' E 147°20'0 0.0
2017-Nov-15 04:46S 42°53' E 147°20'0 0.0
2017-Nov-15 04:29S 42°53' E 147°20'0 0.0
2017-Nov-15 04:00S 42°53' E 147°20'0 0.0
2017-Nov-15 03:29S 42°53' E 147°20'0 0.0
2017-Nov-15 03:01S 42°53' E 147°20'0 0.0
2017-Nov-15 02:28S 42°53' E 147°20'0 0.0
2017-Nov-15 01:56S 42°53' E 147°20'0 0.0
2017-Nov-15 01:28S 42°53' E 147°20'0 0.0
2017-Nov-15 00:56S 42°53' E 147°20'0 0.0
2017-Nov-15 00:24S 42°53' E 147°20'0 0.0
2017-Nov-14 23:25S 42°53' E 147°20'0 0.0
2017-Nov-14 22:38S 42°53' E 147°20'0 0.0
2017-Nov-14 22:25S 42°53' E 147°20'1 1.2
2017-Nov-14 22:00S 42°53' E 147°21'1512.2
2017-Nov-14 20:44S 43°08' E 147°29'518.8
2017-Nov-14 20:26S 43°12' E 147°34'1217.8
2017-Nov-14 19:47S 43°17' E 147°48'519.0
2017-Nov-14 19:30S 43°17' E 147°55'327 7.9
2017-Nov-13 01:57S 38°01' E 149°45'263 8.2
2017-Nov-11 17:50S 33°50' E 151°20'310.6
2017-Nov-11 17:31S 33°49' E 151°24'815.5
2017-Nov-11 17:00S 33°45' E 151°32'816.1
2017-Nov-11 16:29S 33°40' E 151°39'4116.9
2017-Nov-11 14:04S 33°15' E 152°19'116.9
2017-Nov-11 14:00S 33°14' E 152°19'918.2
2017-Nov-11 13:29S 33°08' E 152°28'1121.1
2017-Nov-11 12:59S 33°02' E 152°38'  
Track history (hours):
 
Tides and Currents Weather Stations Pressure Air Temp Water Temp Dewpoint Dewpoint Depression Visibility Wind Speed Wind Dir Waves Ship Positions

Norwegian Jewel

Last reported at 2017-Nov-21 11:00 UTC. Time now 2017-Nov-22 07:26 UTC.
Position S 40°30' E 160°00'.

Type: Ship. MMSI: 311827000.

Wind from 180 at 26 knots

Barometer 1025.0 mb
Air temperature 14.0 ° C
Visibility: greater than 10.8 NM
Dewpoint 13.2 ° C
Water temperature 17.0 ° C

Date/timePositionNaut miles runAvg speedWind from/ knotsBaromVisibWave heightAir tempDewpointWater temp
2017-Nov-21 11:00S 40°30' E 160°00'26922.4 180 / 261025.010.8 14.013.217.0
2017-Nov-20 23:00S 40°36' E 154°06'45311.3 140 / 151027.010.8 15.814.818.0
2017-Nov-19 06:59S 38°01' E 144°55'815.9
2017-Nov-19 06:29S 37°53' E 144°56'3 0.9
2017-Nov-19 03:33S 37°51' E 144°56'0 0.0
2017-Nov-19 03:30S 37°51' E 144°56'0 0.0
2017-Nov-18 19:50S 37°51' E 144°56'3 9.1
2017-Nov-18 19:29S 37°54' E 144°56'814.9
2017-Nov-18 18:59S 38°02' E 144°55'13910.8
2017-Nov-18 06:07S 38°49' E 147°42'316.1
2017-Nov-18 05:56S 38°49' E 147°45'816.2
2017-Nov-18 05:26S 38°47' E 147°55'1016.1
2017-Nov-18 04:48S 38°44' E 148°08'516.4
2017-Nov-18 04:30S 38°43' E 148°14'1016.5
2017-Nov-18 03:55S 38°38' E 148°25'717.2
2017-Nov-18 03:30S 38°34' E 148°33'916.9
2017-Nov-18 03:00S 38°29' E 148°42'817.0
2017-Nov-18 02:30S 38°25' E 148°51'917.3
2017-Nov-18 01:59S 38°20' E 148°60'917.2
2017-Nov-18 01:29S 38°15' E 149°09'285 8.8
2017-Nov-16 17:16S 33°50' E 151°19'510.9
2017-Nov-16 16:51S 33°54' E 151°22'31718.2
2017-Nov-15 23:26S 38°58' E 149°28'26918.1
2017-Nov-15 08:35S 43°13' E 147°35'1915.6
2017-Nov-15 07:20S 42°56' E 147°23'3 8.5
2017-Nov-15 06:57S 42°53' E 147°21'0 0.2
2017-Nov-15 06:30S 42°53' E 147°20'0 0.0
2017-Nov-15 05:56S 42°53' E 147°20'0 0.0
2017-Nov-15 05:25S 42°53' E 147°20'0 0.0
2017-Nov-15 04:46S 42°53' E 147°20'0 0.0
2017-Nov-15 04:29S 42°53' E 147°20'0 0.0
2017-Nov-15 04:00S 42°53' E 147°20'0 0.0
2017-Nov-15 03:29S 42°53' E 147°20'0 0.0
2017-Nov-15 03:01S 42°53' E 147°20'0 0.0
2017-Nov-15 02:28S 42°53' E 147°20'0 0.0
2017-Nov-15 01:56S 42°53' E 147°20'0 0.0
2017-Nov-15 01:28S 42°53' E 147°20'0 0.0
2017-Nov-15 00:56S 42°53' E 147°20'0 0.0
2017-Nov-15 00:24S 42°53' E 147°20'0 0.0
2017-Nov-14 23:25S 42°53' E 147°20'0 0.0
2017-Nov-14 22:38S 42°53' E 147°20'0 0.0
2017-Nov-14 22:25S 42°53' E 147°20'1 1.2
2017-Nov-14 22:00S 42°53' E 147°21'1512.2
2017-Nov-14 20:44S 43°08' E 147°29'518.8
2017-Nov-14 20:26S 43°12' E 147°34'1217.8
2017-Nov-14 19:47S 43°17' E 147°48'519.0
2017-Nov-14 19:30S 43°17' E 147°55'327 7.9
2017-Nov-13 01:57S 38°01' E 149°45'263 8.2
2017-Nov-11 17:50S 33°50' E 151°20'310.6
2017-Nov-11 17:31S 33°49' E 151°24'815.5
2017-Nov-11 17:00S 33°45' E 151°32'816.1
2017-Nov-11 16:29S 33°40' E 151°39'4116.9
2017-Nov-11 14:04S 33°15' E 152°19'116.9
2017-Nov-11 14:00S 33°14' E 152°19'918.2
2017-Nov-11 13:29S 33°08' E 152°28'1121.1
2017-Nov-11 12:59S 33°02' E 152°38'  

Dump ship's entire track history